Terminal Aerodrome Forecast
Issued by NWS

Home | Current Version | Previous Version | Text Only | Print | Product List | Glossary On
Versions: 1 2 3 4 5 6 7 8 9 10 11 12 13 14 15 16 17
661
FTPA31 PHFO 232332
TAFHKO
TAF
PHKO 232332Z 2400/2424 22011KT P6SM VCSH SCT030 BKN050
     FM240500 27008KT P6SM VCSH SCT030 BKN050
      TEMPO 2405/2409 22008KT 5SM -SHRA SCT025 BKN040
     FM241100 26009KT 5SM -SHRA SCT025 OVC040
     FM241400 22009KT P6SM VCSH SCT025 BKN040
     FM242100 25009KT P6SM FEW025 SCT050=

USA.gov is the U.S. government's official web portal to all federal, state and local government web resources and services.